Time;durP1;ratioP1;P1;durP2;ratioP2;P2;SDS_P1;SDS_P2;PMS_P1;PMS_P2;Temp;Humidity;BMP_temperature;BMP_pressure;BME280_temperature;BME280_humidity;BME280_pressure;Samples;Min_cycle;Max_cycle;Signal;HPM_P1;HPM_P2
2024/01/23 00:02:13;;;;;;;16.80;3.90;;;;;;;5.17;100.00;100138.14;220931;1264;139103;-92
2024/01/23 00:07:13;;;;;;;13.50;3.30;;;;;;;5.14;100.00;100130.16;221345;1264;139086;-89
2024/01/23 00:12:51;;;;;;;13.50;3.10;;;;;;;5.09;100.00;100128.09;220901;1265;139968;-89
2024/01/23 00:18:32;;;;;;;17.50;3.60;;;;;;;5.05;100.00;100140.27;221384;1265;138939;-88
2024/01/23 00:23:32;;;;;;;10.40;2.50;;;;;;;4.99;100.00;100156.55;220958;1267;139208;-87
2024/01/23 00:28:32;;;;;;;13.20;2.90;;;;;;;4.96;100.00;100164.16;221507;1264;138284;-88
2024/01/23 00:33:33;;;;;;;14.50;2.90;;;;;;;4.92;100.00;100171.45;220977;1264;139291;-87
2024/01/23 00:38:33;;;;;;;15.10;3.00;;;;;;;4.86;100.00;100176.11;221459;1264;96521;-90
2024/01/23 00:43:34;;;;;;;14.30;3.20;;;;;;;4.82;100.00;100178.95;220970;1264;139019;-90
2024/01/23 00:48:34;;;;;;;15.60;3.40;;;;;;;4.81;100.00;100187.42;221508;1267;138979;-89
2024/01/23 00:53:35;;;;;;;18.40;3.40;;;;;;;4.78;100.00;100198.70;220828;1266;139709;-90
2024/01/23 00:58:36;;;;;;;11.10;3.30;;;;;;;4.77;100.00;100200.00;221713;1266;138982;-91
2024/01/23 01:03:36;;;;;;;14.90;3.50;;;;;;;4.76;100.00;100195.36;220999;1266;138974;-90
2024/01/23 01:08:37;;;;;;;11.70;3.40;;;;;;;4.74;100.00;100191.73;221750;1267;96527;-90
2024/01/23 01:13:37;;;;;;;15.30;3.70;;;;;;;4.74;100.00;100190.08;220903;1265;139153;-90
2024/01/23 01:18:40;;;;;;;11.50;3.30;;;;;;;4.74;100.00;100191.02;221092;1264;138529;-94
2024/01/23 01:23:41;;;;;;;16.50;4.20;;;;;;;4.74;100.00;100191.64;220653;1264;139869;-90
2024/01/23 01:28:41;;;;;;;15.10;3.20;;;;;;;4.74;100.00;100186.67;221335;1264;138272;-92
2024/01/23 01:33:42;;;;;;;12.50;3.30;;;;;;;4.73;100.00;100190.22;220737;1267;139168;-92
2024/01/23 01:38:42;;;;;;;17.70;3.70;;;;;;;4.73;100.00;100193.69;221312;1266;105336;-88
2024/01/23 01:43:43;;;;;;;12.00;3.60;;;;;;;4.73;100.00;100193.63;220307;1266;140259;-89
2024/01/23 01:48:45;;;;;;;17.80;4.10;;;;;;;4.72;100.00;100194.86;221012;1267;138943;-91
2024/01/23 01:53:46;;;;;;;16.60;3.60;;;;;;;4.73;100.00;100191.61;220704;1267;139656;-90
2024/01/23 01:58:47;;;;;;;14.80;3.50;;;;;;;4.73;100.00;100200.09;220951;1266;138464;-90
2024/01/23 02:03:48;;;;;;;15.90;3.70;;;;;;;4.76;100.00;100198.77;220738;1265;139060;-89
2024/01/23 02:08:50;;;;;;;16.40;3.50;;;;;;;4.77;100.00;100202.31;221295;1266;96477;-91
2024/01/23 02:13:50;;;;;;;18.10;4.20;;;;;;;4.75;100.00;100208.73;220696;1266;140439;-92
2024/01/23 02:18:50;;;;;;;13.10;4.40;;;;;;;4.74;100.00;100209.64;221477;1265;139267;-90
2024/01/23 02:23:51;;;;;;;15.30;3.80;;;;;;;4.75;100.00;100210.28;220626;1264;139831;-89
2024/01/23 02:28:51;;;;;;;13.40;3.10;;;;;;;4.75;100.00;100200.23;221451;1266;138445;-91
2024/01/23 02:33:51;;;;;;;16.00;4.90;;;;;;;4.75;100.00;100205.08;220873;1266;139637;-89
2024/01/23 02:38:52;;;;;;;13.90;3.50;;;;;;;4.76;100.00;100211.57;221329;1268;96573;-90
2024/01/23 02:43:52;;;;;;;17.90;3.80;;;;;;;4.75;100.00;100206.94;220701;1267;138803;-90
2024/01/23 02:48:53;;;;;;;19.60;4.30;;;;;;;4.74;100.00;100209.23;221298;1265;138305;-91
2024/01/23 02:53:53;;;;;;;15.30;4.20;;;;;;;4.70;100.00;100210.51;220967;1266;139321;-93
2024/01/23 02:58:54;;;;;;;19.70;4.40;;;;;;;4.65;100.00;100222.92;221176;1263;138624;-90
2024/01/23 03:03:54;;;;;;;15.90;3.90;;;;;;;4.62;100.00;100229.21;220988;1268;139646;-92
2024/01/23 03:08:54;;;;;;;13.30;3.90;;;;;;;4.60;100.00;100227.73;221291;1268;96559;-89
2024/01/23 03:13:55;;;;;;;17.90;5.30;;;;;;;4.58;100.00;100228.67;220930;1265;139246;-92
2024/01/23 03:18:55;;;;;;;16.40;4.20;;;;;;;4.56;100.00;100224.23;221415;1266;138491;-91
2024/01/23 03:23:58;;;;;;;18.00;4.00;;;;;;;4.55;100.00;100225.78;220968;1264;139251;-90
2024/01/23 03:28:58;;;;;;;13.50;4.10;;;;;;;4.58;100.00;100226.66;221435;1263;138480;-90
2024/01/23 03:33:59;;;;;;;14.70;3.90;;;;;;;4.58;100.00;100241.06;220566;1267;139603;-89
2024/01/23 03:38:59;;;;;;;18.20;3.90;;;;;;;4.60;100.00;100241.66;221556;1265;96561;-90
2024/01/23 03:43:59;;;;;;;12.00;3.70;;;;;;;4.61;100.00;100245.52;220655;1265;139054;-90
2024/01/23 03:49:00;;;;;;;29.70;4.50;;;;;;;4.61;100.00;100248.16;221360;1266;138268;-91
2024/01/23 03:54:00;;;;;;;14.50;3.90;;;;;;;4.58;100.00;100246.29;220548;1264;139555;-89
2024/01/23 03:59:01;;;;;;;14.00;3.70;;;;;;;4.54;100.00;100238.85;221196;1266;139944;-89
2024/01/23 04:04:02;;;;;;;16.20;3.90;;;;;;;4.51;100.00;100240.52;220727;1266;139705;-90
2024/01/23 04:09:03;;;;;;;14.20;3.60;;;;;;;4.48;100.00;100242.23;221361;1268;96656;-89
2024/01/23 04:14:04;;;;;;;29.80;10.00;;;;;;;4.42;100.00;100240.02;220812;1266;139465;-92
2024/01/23 04:19:04;;;;;;;24.90;10.00;;;;;;;4.37;100.00;100247.70;221135;1266;138445;-90
2024/01/23 04:24:05;;;;;;;13.40;5.80;;;;;;;4.30;100.00;100252.15;220818;1264;139830;-89
2024/01/23 04:29:05;;;;;;;11.00;3.80;;;;;;;4.30;100.00;100258.66;221372;1263;138495;-89
2024/01/23 04:34:05;;;;;;;15.00;3.80;;;;;;;4.30;100.00;100264.42;220793;1264;139280;-89
2024/01/23 04:39:06;;;;;;;19.60;4.40;;;;;;;4.28;100.00;100260.00;221288;1264;96997;-89
2024/01/23 04:44:06;;;;;;;13.80;4.40;;;;;;;4.24;100.00;100265.39;221013;1267;139620;-89
2024/01/23 04:49:07;;;;;;;13.80;4.30;;;;;;;4.20;100.00;100271.95;221196;1265;139314;-89
2024/01/23 04:54:07;;;;;;;13.70;3.60;;;;;;;4.16;100.00;100284.58;220846;1266;140552;-89
2024/01/23 04:59:08;;;;;;;9.50;3.30;;;;;;;4.12;100.00;100292.45;221410;1264;138606;-89
2024/01/23 05:04:08;;;;;;;10.30;3.00;;;;;;;4.08;100.00;100296.60;220855;1265;140233;-92
2024/01/23 05:09:09;;;;;;;14.10;3.20;;;;;;;4.03;100.00;100308.88;221186;1267;96593;-91
2024/01/23 05:14:10;;;;;;;11.20;3.60;;;;;;;3.99;100.00;100312.88;220788;1266;141038;-92
2024/01/23 05:19:10;;;;;;;12.30;4.40;;;;;;;3.96;100.00;100314.69;221305;1266;139487;-90
2024/01/23 05:24:11;;;;;;;13.20;3.20;;;;;;;3.94;100.00;100319.35;220554;1264;140552;-90
2024/01/23 05:29:11;;;;;;;9.70;2.90;;;;;;;3.91;100.00;100331.39;221375;1266;138626;-89
2024/01/23 05:34:12;;;;;;;11.00;3.10;;;;;;;3.88;100.00;100340.40;220655;1267;140080;-90
2024/01/23 05:39:12;;;;;;;21.30;3.90;;;;;;;3.86;100.00;100352.45;221341;1265;139068;-89
2024/01/23 05:44:13;;;;;;;12.80;3.40;;;;;;;3.85;100.00;100356.78;220652;1267;139569;-88
2024/01/23 05:49:15;;;;;;;17.50;3.60;;;;;;;3.87;100.00;100364.29;221207;1263;139257;-89
2024/01/23 05:54:15;;;;;;;16.90;3.70;;;;;;;3.91;100.00;100364.83;220829;1264;141081;-90
2024/01/23 05:59:15;;;;;;;18.00;3.80;;;;;;;3.97;100.00;100373.08;221238;1266;139449;-89
2024/01/23 06:04:16;;;;;;;14.00;4.00;;;;;;;4.03;100.00;100382.70;220664;1267;140110;-89
2024/01/23 06:09:16;;;;;;;24.00;6.70;;;;;;;4.06;100.00;100376.20;221130;1266;139403;-89
2024/01/23 06:14:17;;;;;;;15.70;5.10;;;;;;;4.06;100.00;100387.12;221002;1266;140320;-91
2024/01/23 06:19:18;;;;;;;22.80;7.80;;;;;;;4.08;100.00;100388.15;221315;1264;138423;-89
2024/01/23 06:24:22;;;;;;;20.80;7.30;;;;;;;4.09;100.00;100390.55;220726;1264;139799;-91
2024/01/23 06:29:23;;;;;;;17.70;7.30;;;;;;;4.09;100.00;100397.70;221385;1267;139188;-90
2024/01/23 06:34:24;;;;;;;13.10;4.30;;;;;;;4.08;100.00;100401.80;220729;1266;139472;-90
2024/01/23 06:39:25;;;;;;;18.70;5.90;;;;;;;4.07;100.00;100407.06;221255;1266;138954;-89
2024/01/23 06:44:25;;;;;;;18.30;4.70;;;;;;;4.07;100.00;100407.51;220795;1265;139706;-90
2024/01/23 06:49:26;;;;;;;14.70;4.30;;;;;;;4.06;100.00;100424.77;221476;1264;139304;-90
2024/01/23 06:54:30;;;;;;;12.90;4.50;;;;;;;4.05;100.00;100430.85;220524;1268;139657;-92
2024/01/23 06:59:30;;;;;;;21.60;7.60;;;;;;;4.02;100.00;100444.52;221182;1266;138624;-90
2024/01/23 07:04:31;;;;;;;19.60;9.50;;;;;;;4.00;100.00;100458.46;220874;1268;139942;-89
2024/01/23 07:09:31;;;;;;;13.50;5.80;;;;;;;3.97;100.00;100479.00;221443;1267;138917;-91
2024/01/23 07:14:31;;;;;;;22.80;8.90;;;;;;;3.93;100.00;100484.15;220974;1268;139673;-90
2024/01/23 07:19:32;;;;;;;15.30;6.80;;;;;;;3.94;100.00;100492.29;221159;1266;138457;-90
2024/01/23 07:24:32;;;;;;;18.30;6.40;;;;;;;3.95;100.00;100495.89;221024;1264;139476;-90
2024/01/23 07:29:32;;;;;;;19.90;4.60;;;;;;;3.94;100.00;100502.50;221509;1264;138451;-92
2024/01/23 07:34:35;;;;;;;10.10;3.50;;;;;;;3.95;100.00;100521.59;220765;1264;139399;-93
2024/01/23 07:39:36;;;;;;;10.80;3.60;;;;;;;3.99;100.00;100531.14;221183;1267;138388;-89
2024/01/23 07:44:39;;;;;;;15.70;4.20;;;;;;;4.05;100.00;100539.46;220987;1267;139390;-88
2024/01/23 07:49:40;;;;;;;12.90;3.60;;;;;;;4.12;100.00;100542.08;221442;1264;138414;-92
2024/01/23 07:54:41;;;;;;;16.90;3.30;;;;;;;4.19;100.00;100555.26;221379;1268;138897;-89
2024/01/23 07:59:42;;;;;;;15.00;3.60;;;;;;;4.27;100.00;100566.07;221645;1268;137548;-91
2024/01/23 08:04:42;;;;;;;14.00;3.40;;;;;;;4.33;100.00;100566.41;220913;1264;139578;-89
2024/01/23 08:09:42;;;;;;;12.20;3.20;;;;;;;4.39;100.00;100581.09;221424;1264;138748;-87
2024/01/23 08:14:44;;;;;;;8.20;3.10;;;;;;;4.47;100.00;100583.35;220682;1264;140023;-87
2024/01/23 08:19:44;;;;;;;12.90;3.60;;;;;;;4.57;100.00;100584.33;220953;1270;139422;-87
2024/01/23 08:24:45;;;;;;;12.80;3.80;;;;;;;4.66;100.00;100591.31;220702;1267;139619;-86
2024/01/23 08:29:45;;;;;;;11.70;3.80;;;;;;;4.73;100.00;100598.20;221293;1264;138485;-87
2024/01/23 08:34:46;;;;;;;13.10;3.70;;;;;;;4.82;100.00;100593.64;220762;1264;139775;-88
2024/01/23 08:39:46;;;;;;;12.50;3.60;;;;;;;4.95;100.00;100597.14;221232;1264;140303;-89
2024/01/23 08:44:49;;;;;;;17.50;3.60;;;;;;;5.05;100.00;100606.60;220908;1264;139833;-87
2024/01/23 08:49:49;;;;;;;13.70;3.80;;;;;;;5.12;100.00;100609.36;221046;1267;139936;-87
2024/01/23 08:54:50;;;;;;;14.60;3.80;;;;;;;5.23;100.00;100618.64;220964;1267;138395;-88
2024/01/23 08:59:52;;;;;;;13.70;3.70;;;;;;;5.44;100.00;100623.05;220872;1264;139732;-87
2024/01/23 09:04:52;;;;;;;11.70;3.50;;;;;;;5.66;100.00;100625.58;223321;1264;138668;-88
2024/01/23 09:09:54;;;;;;;14.50;3.30;;;;;;;5.87;100.00;100637.30;222750;1264;140010;-88
2024/01/23 09:14:54;;;;;;;10.20;3.10;;;;;;;6.11;100.00;100645.35;223431;1264;96487;-89
2024/01/23 09:19:55;;;;;;;9.90;2.70;;;;;;;6.27;100.00;100651.44;220575;1264;139822;-87
2024/01/23 09:24:55;;;;;;;13.20;2.60;;;;;;;6.37;100.00;100652.74;221383;1264;138169;-87
2024/01/23 09:29:56;;;;;;;12.90;2.90;;;;;;;6.51;100.00;100661.00;221041;1264;142078;-88
2024/01/23 09:34:56;;;;;;;11.90;3.40;;;;;;;6.60;100.00;100662.55;221141;1264;138584;-89
2024/01/23 09:39:57;;;;;;;12.10;3.30;;;;;;;6.70;100.00;100663.54;220820;1264;139854;-88
2024/01/23 09:45:03;;;;;;;13.70;2.90;;;;;;;6.79;100.00;100668.04;221485;1263;109179;-86
2024/01/23 09:50:05;;;;;;;11.00;3.20;;;;;;;6.70;100.00;100671.84;220509;1267;140760;-87
2024/01/23 09:55:06;;;;;;;12.60;4.60;;;;;;;6.59;100.00;100675.00;221327;1264;138381;-90
2024/01/23 10:00:11;;;;;;;17.40;3.90;;;;;;;6.52;100.00;100676.74;220771;1264;139775;-88
2024/01/23 10:05:15;;;;;;;14.40;3.20;;;;;;;6.43;100.00;100678.34;221158;1264;138467;-91
2024/01/23 10:10:17;;;;;;;14.40;3.70;;;;;;;6.38;100.00;100666.45;220943;1264;139514;-87
2024/01/23 10:15:21;;;;;;;12.90;3.80;;;;;;;6.40;100.00;100669.02;221201;1267;138422;-87
2024/01/23 10:20:22;;;;;;;13.30;3.90;;;;;;;6.38;100.00;100671.47;220990;1267;139353;-91
2024/01/23 10:25:25;;;;;;;14.10;3.70;;;;;;;6.38;100.00;100685.69;221157;1267;148322;-87
2024/01/23 10:30:26;;;;;;;10.90;3.40;;;;;;;6.34;100.00;100695.55;220688;1267;140468;-89
2024/01/23 10:35:26;;;;;;;9.10;3.20;;;;;;;6.33;100.00;100695.34;221245;1264;138809;-88
2024/01/23 10:40:27;;;;;;;10.80;3.30;;;;;;;6.31;100.00;100703.19;220806;1266;139731;-89
2024/01/23 10:45:27;;;;;;;12.20;3.30;;;;;;;6.28;100.00;100703.80;221256;1264;138497;-91
2024/01/23 10:50:29;;;;;;;13.90;3.00;;;;;;;6.24;100.00;100705.98;220815;1264;139725;-88
2024/01/23 10:55:31;;;;;;;10.40;3.00;;;;;;;6.20;100.00;100696.10;221229;1264;139478;-91
2024/01/23 11:00:33;;;;;;;15.90;3.80;;;;;;;6.19;100.00;100702.95;220609;1264;140131;-92
2024/01/23 11:06:14;;;;;;;17.20;3.20;;;;;;;6.20;100.00;100693.98;221117;1264;138424;-89
2024/01/23 11:11:33;;;;;;;8.90;3.70;;;;;;;6.18;100.00;100690.02;220508;1263;139953;-85
2024/01/23 11:16:33;;;;;;;10.70;3.90;;;;;;;6.17;100.00;100686.23;221126;1264;138983;-90
2024/01/23 11:21:34;;;;;;;15.70;3.30;;;;;;;6.18;100.00;100692.59;220768;1264;140152;-91
2024/01/23 11:26:35;;;;;;;12.60;3.10;;;;;;;6.18;100.00;100697.61;221384;1264;97010;-89
2024/01/23 11:31:40;;;;;;;14.20;3.70;;;;;;;6.19;100.00;100693.56;220733;1266;140792;-88
2024/01/23 11:36:41;;;;;;;14.40;3.90;;;;;;;6.18;100.00;100691.34;221152;1264;138474;-89
2024/01/23 11:41:49;;;;;;;13.40;3.40;;;;;;;6.17;100.00;100692.88;220601;1264;139649;-86
2024/01/23 11:46:52;;;;;;;12.80;4.30;;;;;;;6.22;100.00;100702.79;221100;1264;139168;-88
2024/01/23 11:51:55;;;;;;;12.70;3.00;;;;;;;6.27;100.00;100698.34;220694;1264;139467;-89
2024/01/23 11:56:57;;;;;;;15.40;4.20;;;;;;;6.28;100.00;100704.80;221177;1264;109830;-90
2024/01/23 12:01:58;;;;;;;14.80;3.40;;;;;;;6.24;100.00;100706.21;220577;1265;139655;-90
2024/01/23 12:06:58;;;;;;;14.80;3.60;;;;;;;6.23;100.00;100716.25;221595;1264;138299;-90
2024/01/23 12:12:00;;;;;;;14.40;3.10;;;;;;;6.19;100.00;100715.11;220888;1264;141237;-89
2024/01/23 12:17:04;;;;;;;18.00;3.90;;;;;;;6.17;100.00;100713.02;221075;1264;138440;-87
2024/01/23 12:22:05;;;;;;;12.40;3.50;;;;;;;6.14;100.00;100719.23;220694;1264;139432;-91
2024/01/23 12:27:07;;;;;;;11.40;3.70;;;;;;;6.12;100.00;100730.26;221362;1264;96585;-89
2024/01/23 12:32:11;;;;;;;15.50;3.80;;;;;;;6.09;100.00;100733.98;220933;1264;140453;-90
2024/01/23 12:37:11;;;;;;;16.70;3.50;;;;;;;6.06;100.00;100732.55;221445;1264;138421;-90
2024/01/23 12:42:12;;;;;;;20.20;4.10;;;;;;;6.03;100.00;100738.25;220755;1264;140553;-90
2024/01/23 12:47:15;;;;;;;11.00;2.90;;;;;;;6.00;100.00;100747.90;221406;1264;138594;-86
2024/01/23 12:52:18;;;;;;;16.70;5.10;;;;;;;5.98;100.00;100752.96;220525;1264;139583;-88
2024/01/23 12:57:18;;;;;;;11.50;3.20;;;;;;;5.96;100.00;100751.33;221199;1264;138851;-91
2024/01/23 13:02:18;;;;;;;15.70;3.30;;;;;;;5.95;100.00;100752.63;220998;1264;139609;-90
2024/01/23 13:07:19;;;;;;;16.10;4.30;;;;;;;5.94;100.00;100754.06;221162;1264;139438;-88
2024/01/23 13:12:19;;;;;;;14.10;3.30;;;;;;;5.90;100.00;100755.98;220954;1267;139562;-88
2024/01/23 13:17:21;;;;;;;15.90;3.60;;;;;;;5.91;100.00;100762.02;221403;1264;138466;-89
2024/01/23 13:22:21;;;;;;;13.60;3.70;;;;;;;5.93;100.00;100756.39;220831;1264;139657;-92
2024/01/23 13:27:22;;;;;;;16.10;3.30;;;;;;;6.00;100.00;100764.58;221201;1264;138485;-88
2024/01/23 13:32:23;;;;;;;16.80;3.50;;;;;;;6.06;100.00;100767.67;221074;1264;139398;-89
2024/01/23 13:37:24;;;;;;;13.80;2.90;;;;;;;6.11;100.00;100774.19;221108;1264;138536;-88
2024/01/23 13:42:25;;;;;;;15.10;3.20;;;;;;;6.18;100.00;100778.88;220749;1264;139775;-89
2024/01/23 13:47:25;;;;;;;15.10;3.60;;;;;;;6.20;100.00;100783.16;221314;1264;138717;-89
2024/01/23 13:52:26;;;;;;;15.10;4.10;;;;;;;6.21;100.00;100792.48;220543;1266;140144;-88
2024/01/23 13:57:26;;;;;;;18.10;3.90;;;;;;;6.21;100.00;100809.27;221235;1264;139139;-87
2024/01/23 14:02:27;;;;;;;17.40;4.20;;;;;;;6.18;100.00;100813.63;220809;1264;139593;-89
2024/01/23 14:07:28;;;;;;;14.20;3.30;;;;;;;6.17;100.00;100822.00;221234;1264;138252;-90
2024/01/23 14:12:29;;;;;;;11.20;3.20;;;;;;;6.13;100.00;100820.62;220743;1267;140395;-89
2024/01/23 14:17:29;;;;;;;12.70;3.40;;;;;;;6.10;100.00;100823.24;221594;1267;138515;-90
2024/01/23 14:22:31;;;;;;;13.00;2.80;;;;;;;6.01;100.00;100829.81;220782;1264;140165;-86
2024/01/23 14:27:31;;;;;;;16.10;3.40;;;;;;;5.94;100.00;100841.94;221764;1264;138555;-90
2024/01/23 14:32:32;;;;;;;11.90;3.30;;;;;;;5.84;100.00;100866.56;220811;1264;139281;-86
2024/01/23 14:37:34;;;;;;;16.80;3.30;;;;;;;5.73;100.00;100880.49;221165;1264;138402;-89
2024/01/23 14:42:34;;;;;;;15.00;3.40;;;;;;;5.63;100.00;100890.85;220609;1264;139369;-89
2024/01/23 14:47:35;;;;;;;13.50;3.80;;;;;;;5.53;100.00;100910.04;221103;1264;139666;-87
2024/01/23 14:52:37;;;;;;;14.50;4.20;;;;;;;5.42;100.00;100924.62;220887;1264;139287;-88
2024/01/23 14:57:39;;;;;;;14.90;3.70;;;;;;;5.36;100.00;100939.55;221340;1264;138705;-88
2024/01/23 15:02:39;;;;;;;18.20;3.60;;;;;;;5.31;100.00;100953.48;220900;1263;139408;-89
2024/01/23 15:07:40;;;;;;;14.70;4.00;;;;;;;5.28;100.00;100960.43;222085;1264;138413;-88
2024/01/23 15:12:40;;;;;;;16.80;4.10;;;;;;;5.25;100.00;100968.44;220804;1264;139764;-87
2024/01/23 15:17:43;;;;;;;18.50;5.20;;;;;;;5.23;100.00;100972.89;221092;1264;139243;-89
2024/01/23 15:22:44;;;;;;;22.30;8.70;;;;;;;5.19;100.00;100968.13;221026;1264;141472;-86
2024/01/23 15:27:44;;;;;;;22.40;5.10;;;;;;;5.15;100.00;100970.45;221095;1264;138654;-85
2024/01/23 15:32:45;;;;;;;22.00;4.90;;;;;;;5.09;100.00;100973.62;221449;1264;138957;-85
2024/01/23 15:37:45;;;;;;;19.10;4.90;;;;;;;5.02;100.00;100972.84;220906;1264;138510;-86
2024/01/23 15:42:46;;;;;;;20.00;4.60;;;;;;;4.96;100.00;100984.88;221065;1263;139605;-86
2024/01/23 15:47:46;;;;;;;15.30;4.40;;;;;;;4.93;100.00;100986.10;221140;1264;138650;-86
2024/01/23 15:52:47;;;;;;;18.00;4.40;;;;;;;4.89;100.00;100993.76;220577;1265;139537;-87
2024/01/23 15:57:48;;;;;;;22.40;4.60;;;;;;;4.88;100.00;101003.21;221360;1264;138467;-86
2024/01/23 16:02:50;;;;;;;18.30;4.50;;;;;;;4.90;100.00;101008.83;220835;1264;139327;-87
2024/01/23 16:07:50;;;;;;;19.70;4.60;;;;;;;4.95;100.00;101024.60;221351;1265;138471;-87
2024/01/23 16:12:51;;;;;;;16.90;5.30;;;;;;;4.98;100.00;101028.41;220721;1264;139240;-88
2024/01/23 16:17:53;;;;;;;20.10;5.40;;;;;;;5.00;100.00;101036.07;221129;1264;138539;-86
2024/01/23 16:22:54;;;;;;;17.80;5.90;;;;;;;4.99;100.00;101039.86;220762;1265;139673;-86
2024/01/23 16:27:55;;;;;;;23.50;5.30;;;;;;;5.05;100.00;101037.38;221051;1264;138458;-87
2024/01/23 16:32:56;;;;;;;25.00;6.50;;;;;;;5.10;100.00;101043.33;220622;1264;139912;-88
2024/01/23 16:37:56;;;;;;;30.50;6.60;;;;;;;5.12;100.00;101054.27;221107;1266;137328;-89
2024/01/23 16:43:01;;;;;;;18.30;5.40;;;;;;;5.15;100.00;101064.92;220778;1264;139458;-89
2024/01/23 16:48:04;;;;;;;22.60;5.70;;;;;;;5.17;100.00;101068.61;221092;1265;139840;-87
2024/01/23 16:53:04;;;;;;;19.50;4.90;;;;;;;5.19;100.00;101079.77;221115;1264;139593;-89
2024/01/23 16:58:05;;;;;;;21.90;5.30;;;;;;;5.19;100.00;101089.91;221193;1264;138609;-88
2024/01/23 17:03:06;;;;;;;17.30;5.10;;;;;;;5.21;100.00;101096.59;220958;1264;139430;-89
2024/01/23 17:08:06;;;;;;;21.80;5.10;;;;;;;5.22;100.00;101101.69;220942;1264;138431;-88
2024/01/23 17:13:07;;;;;;;21.00;5.20;;;;;;;5.22;100.00;101115.89;220514;1264;139864;-90
2024/01/23 17:18:07;;;;;;;25.10;5.40;;;;;;;5.25;100.00;101128.65;221204;1264;138453;-89
2024/01/23 17:23:08;;;;;;;18.70;4.70;;;;;;;5.25;100.00;101142.46;220620;1264;140372;-88
2024/01/23 17:28:08;;;;;;;22.60;4.50;;;;;;;5.24;100.00;101143.29;221121;1265;138500;-92
2024/01/23 17:33:10;;;;;;;23.70;5.20;;;;;;;5.24;100.00;101145.22;220875;1264;139392;-87
2024/01/23 17:38:10;;;;;;;19.00;4.30;;;;;;;5.22;100.00;101158.09;221002;1264;138492;-88
2024/01/23 17:43:10;;;;;;;24.80;5.90;;;;;;;5.17;100.00;101158.96;220560;1263;139567;-87
2024/01/23 17:48:11;;;;;;;19.60;4.60;;;;;;;5.12;100.00;101162.48;221235;1266;139496;-87
2024/01/23 17:53:11;;;;;;;25.10;5.70;;;;;;;5.06;100.00;101172.40;220487;1266;139381;-87
2024/01/23 17:58:12;;;;;;;25.70;6.90;;;;;;;4.99;100.00;101172.95;221726;1264;138439;-89
2024/01/23 18:03:12;;;;;;;30.80;8.40;;;;;;;4.90;100.00;101169.10;220555;1264;139301;-87
2024/01/23 18:08:13;;;;;;;23.60;6.60;;;;;;;4.81;100.00;101171.89;221308;1264;96535;-87
2024/01/23 18:13:14;;;;;;;24.30;6.80;;;;;;;4.71;100.00;101173.01;220648;1264;139476;-87
2024/01/23 18:18:14;;;;;;;21.60;6.00;;;;;;;4.63;100.00;101173.61;221123;1264;138758;-86
2024/01/23 18:23:14;;;;;;;26.70;8.10;;;;;;;4.54;100.00;101180.67;221067;1264;139235;-87
2024/01/23 18:28:15;;;;;;;24.50;6.80;;;;;;;4.46;100.00;101184.73;221094;1267;138754;-87
2024/01/23 18:33:15;;;;;;;25.90;6.90;;;;;;;4.39;100.00;101185.50;220989;1266;139428;-87
2024/01/23 18:38:17;;;;;;;28.20;7.80;;;;;;;4.31;100.00;101187.52;221263;1267;96512;-87
2024/01/23 18:43:21;;;;;;;26.00;8.60;;;;;;;4.25;100.00;101185.05;220409;1267;138977;-85
2024/01/23 18:48:21;;;;;;;34.40;8.90;;;;;;;4.21;100.00;101182.44;221149;1265;138506;-87
2024/01/23 18:53:21;;;;;;;27.80;8.30;;;;;;;4.14;100.00;101189.05;220575;1264;139384;-86
2024/01/23 18:58:22;;;;;;;25.60;9.00;;;;;;;4.09;100.00;101189.16;221225;1265;138700;-88
2024/01/23 19:03:22;;;;;;;25.70;8.40;;;;;;;4.04;100.00;101184.27;220766;1263;140098;-88
2024/01/23 19:08:23;;;;;;;25.30;7.90;;;;;;;4.00;100.00;101187.23;221493;1263;96584;-87
2024/01/23 19:13:24;;;;;;;28.30;7.30;;;;;;;3.96;100.00;101181.61;220881;1262;139316;-86
2024/01/23 19:18:27;;;;;;;29.70;7.40;;;;;;;3.96;100.00;101187.41;221281;1263;139348;-87
2024/01/23 19:23:27;;;;;;;24.10;7.10;;;;;;;3.92;100.00;101187.17;220777;1267;139731;-85
2024/01/23 19:28:28;;;;;;;23.00;7.80;;;;;;;3.89;100.00;101185.68;221257;1263;138626;-87
2024/01/23 19:33:30;;;;;;;27.50;7.60;;;;;;;3.87;100.00;101184.18;220657;1263;139371;-87
2024/01/23 19:38:30;;;;;;;24.80;8.00;;;;;;;3.85;100.00;101187.15;221282;1263;96877;-86
2024/01/23 19:43:31;;;;;;;24.10;7.80;;;;;;;3.83;100.00;101185.48;220789;1263;139818;-86
2024/01/23 19:48:33;;;;;;;30.70;7.30;;;;;;;3.80;100.00;101187.73;221331;1263;140341;-86
2024/01/23 19:53:34;;;;;;;20.00;7.00;;;;;;;3.77;100.00;101185.34;220714;1266;139335;-86
2024/01/23 19:58:36;;;;;;;32.80;10.10;;;;;;;3.75;100.00;101188.46;220986;1267;138679;-86
2024/01/23 20:03:36;;;;;;;25.40;7.50;;;;;;;3.75;100.00;101194.50;220501;1263;139881;-88
2024/01/23 20:08:36;;;;;;;26.80;7.70;;;;;;;3.77;100.00;101207.31;221283;1263;96571;-87
2024/01/23 20:13:37;;;;;;;19.40;6.90;;;;;;;3.77;100.00;101204.23;220639;1263;139753;-85
2024/01/23 20:18:37;;;;;;;23.00;6.80;;;;;;;3.75;100.00;101203.38;221213;1263;138852;-85
2024/01/23 20:23:38;;;;;;;25.30;6.50;;;;;;;3.74;100.00;101193.12;220662;1265;139213;-87
2024/01/23 20:28:39;;;;;;;22.20;6.80;;;;;;;3.73;100.00;101194.17;221310;1263;139838;-86
2024/01/23 20:33:43;;;;;;;23.40;7.30;;;;;;;3.72;100.00;101192.69;220844;1263;139225;-86
2024/01/23 20:38:43;;;;;;;32.70;9.20;;;;;;;3.70;100.00;101185.38;221466;1263;96496;-85
2024/01/23 20:43:45;;;;;;;27.70;7.90;;;;;;;3.69;100.00;101181.05;220645;1263;139925;-86
2024/01/23 20:48:46;;;;;;;23.00;7.00;;;;;;;3.66;100.00;101183.81;221195;1263;138826;-85
2024/01/23 22:32:20;;;;;;;29.00;10.20;;;;;;;3.40;100.00;101018.64;221040;1263;140465;-88
2024/01/23 22:37:21;;;;;;;41.10;9.60;;;;;;;3.39;100.00;101004.30;221125;1263;138765;-87
2024/01/23 22:42:21;;;;;;;32.10;9.90;;;;;;;3.39;100.00;100978.08;220574;1263;139213;-87
2024/01/23 22:47:22;;;;;;;28.20;9.80;;;;;;;3.38;100.00;100969.57;221261;1262;139125;-91
2024/01/23 22:52:23;;;;;;;30.20;9.70;;;;;;;3.37;100.00;100977.42;220858;1263;139278;-88
2024/01/23 22:57:23;;;;;;;37.20;9.90;;;;;;;3.37;100.00;100983.79;221484;1263;96570;-88
2024/01/23 23:02:24;;;;;;;26.10;8.50;;;;;;;3.37;100.00;100995.39;220994;1263;139265;-92
2024/01/23 23:07:26;;;;;;;27.90;9.60;;;;;;;3.38;100.00;100988.51;222060;1262;138634;-94
2024/01/23 23:12:27;;;;;;;33.90;9.20;;;;;;;3.40;100.00;100970.98;221154;1266;138758;-92
2024/01/23 23:17:28;;;;;;;31.90;9.90;;;;;;;3.42;100.00;100946.52;221742;1263;138531;-88
2024/01/23 23:22:31;;;;;;;30.70;9.60;;;;;;;3.45;100.00;100943.45;222060;1263;139331;-90
2024/01/23 23:27:32;;;;;;;29.90;8.50;;;;;;;3.47;100.00;100924.24;222807;1263;97520;-93
2024/01/23 23:32:33;;;;;;;22.50;8.00;;;;;;;3.48;100.00;100897.30;221217;1263;139023;-91
2024/01/23 23:37:34;;;;;;;25.00;9.10;;;;;;;3.49;100.00;100886.96;221835;1266;138308;-91
2024/01/23 23:42:35;;;;;;;32.40;8.70;;;;;;;3.47;100.00;100893.16;220976;1263;139642;-93
2024/01/23 23:47:35;;;;;;;26.50;8.10;;;;;;;3.42;100.00;100886.29;221810;1262;137658;-90
2024/01/23 23:52:36;;;;;;;26.90;8.70;;;;;;;3.42;100.00;100885.31;221444;1263;140241;-91
2024/01/23 23:57:37;;;;;;;28.70;7.80;;;;;;;3.42;100.00;100890.54;222096;1262;96610;-92
